Terminal Aerodrome Forecast
Issued by NWS Shreveport, LA

Home | Current Version | Previous Version | Text Only | Print | Product List | Glossary On
Versions: 1 2 3 4 5 6 7 8 9 10 11 12 13 14 15 16 17 18
000
FTUS44 KSHV 282357
TAFELD
TAF
KELD 282357Z 2900/2924 03005KT 5SM HZ VCTS FEW035CB SCT100
      TEMPO 2901/2902 TSRA BKN020CB
     FM290200 04009KT P6SM BKN015
     FM290900 VRB05KT P6SM SCT010 BKN020
     FM291600 VRB05KT P6SM VCSH BKN015
     FM292100 35004KT P6SM OVC100=

USA.gov is the U.S. government's official web portal to all federal, state and local government web resources and services.